createdAt,value
2022-12-08T00:02:21.772Z,-0.17
2022-12-08T00:05:42.901Z,-0.14
2022-12-08T00:09:04.081Z,-0.21
2022-12-08T00:12:07.819Z,-0.17
2022-12-08T00:15:10.368Z,-0.16
2022-12-08T00:18:12.742Z,-0.12
2022-12-08T00:21:15.129Z,-0.25
2022-12-08T00:24:18.325Z,-0.11
2022-12-08T00:27:20.566Z,-0.23
2022-12-08T00:30:22.856Z,-0.18
2022-12-08T00:33:25.506Z,-0.29
2022-12-08T00:36:27.932Z,-0.24
2022-12-08T00:39:30.274Z,-0.28
2022-12-08T00:42:32.597Z,-0.21
2022-12-08T00:45:34.934Z,-0.27
2022-12-08T00:48:37.324Z,-0.21
2022-12-08T00:51:39.607Z,-0.19
2022-12-08T00:54:41.992Z,-0.14
2022-12-08T00:57:44.393Z,-0.17
2022-12-08T01:00:47.651Z,-0.13
2022-12-08T01:03:50.154Z,-0.03
2022-12-08T01:06:52.551Z,-0.12
2022-12-08T01:09:54.907Z,-0.06
2022-12-08T01:12:57.832Z,-0.18
2022-12-08T01:16:00.512Z,-0.31
2022-12-08T01:19:03.915Z,-0.08
2022-12-08T01:22:06.201Z,-0.14
2022-12-08T01:25:09.005Z,-0.20
2022-12-08T01:28:11.319Z,-0.13
2022-12-08T01:31:18.906Z,-0.08
2022-12-08T01:34:21.293Z,-0.14
2022-12-08T01:37:23.601Z,-0.02
2022-12-08T01:40:25.926Z,-0.11
2022-12-08T01:43:52.357Z,-0.24
2022-12-08T01:46:55.105Z,-0.11
2022-12-08T01:49:57.522Z,-0.24
2022-12-08T01:53:09.402Z,-0.25
2022-12-08T01:56:16.635Z,-0.17
2022-12-08T01:59:19.595Z,-0.20
2022-12-08T02:02:32.867Z,-0.14
2022-12-08T02:05:37.920Z,-0.23
2022-12-08T02:08:42.365Z,-0.13
2022-12-08T02:11:44.644Z,-0.16
2022-12-08T02:14:47.140Z,-0.08
2022-12-08T02:18:09.836Z,0.02
2022-12-08T02:21:14.865Z,-0.15
2022-12-08T02:24:38.761Z,-0.07
2022-12-08T02:28:04.076Z,0.01
2022-12-08T02:31:18.621Z,-0.01
2022-12-08T02:34:35.868Z,0.03
2022-12-08T02:38:09.536Z,-0.00
2022-12-08T02:41:39.523Z,0.14
2022-12-08T02:44:59.510Z,-0.02
2022-12-08T02:48:01.836Z,-0.15
2022-12-08T02:51:04.965Z,-0.15
2022-12-08T02:54:07.405Z,-0.20
2022-12-08T02:57:12.446Z,-0.08
2022-12-08T03:00:17.460Z,-0.13
2022-12-08T03:03:46.204Z,-0.02
2022-12-08T03:06:57.596Z,-0.00
2022-12-08T03:10:11.509Z,0.17
2022-12-08T03:13:16.775Z,-0.14
2022-12-08T03:16:27.467Z,-0.09
2022-12-08T03:19:34.762Z,-0.08
2022-12-08T03:22:38.329Z,-0.19
2022-12-08T03:25:54.223Z,0.06
2022-12-08T03:28:57.070Z,0.01
2022-12-08T03:32:12.214Z,-0.07
2022-12-08T03:35:16.839Z,-0.01
2022-12-08T03:38:19.158Z,-0.14
2022-12-08T03:41:23.067Z,-0.16
2022-12-08T03:44:25.316Z,-0.15
2022-12-08T03:47:27.699Z,-0.12
2022-12-08T03:50:30.116Z,-0.14
2022-12-08T03:53:32.540Z,-0.13
2022-12-08T03:56:37.771Z,-0.19
2022-12-08T03:59:40.245Z,-0.28
2022-12-08T04:02:42.642Z,-0.02
2022-12-08T04:05:44.988Z,-0.08
2022-12-08T04:08:47.608Z,-0.09
2022-12-08T04:11:50.004Z,0.04
2022-12-08T04:14:52.330Z,0.03
2022-12-08T04:17:54.573Z,-0.11
2022-12-08T04:20:56.909Z,-0.04
2022-12-08T04:24:01.292Z,-0.02
2022-12-08T04:27:04.034Z,-0.05
2022-12-08T04:30:07.535Z,-0.07
2022-12-08T04:33:10.032Z,-0.14
2022-12-08T04:36:12.522Z,-0.23
2022-12-08T04:39:14.809Z,-0.11
2022-12-08T04:42:17.192Z,-0.05
2022-12-08T04:45:19.662Z,-0.16
2022-12-08T04:48:22.026Z,-0.20
2022-12-08T04:51:24.452Z,-0.07
2022-12-08T04:54:27.155Z,-0.23
2022-12-08T04:57:29.551Z,-0.09
2022-12-08T05:00:31.932Z,-0.07
2022-12-08T05:03:34.227Z,-0.16
2022-12-08T05:06:36.569Z,-0.13
2022-12-08T05:09:38.802Z,-0.17
2022-12-08T05:12:41.163Z,-0.17
2022-12-08T05:15:43.568Z,0.07
2022-12-08T05:18:46.011Z,-0.03
2022-12-08T05:21:48.374Z,-0.07
2022-12-08T05:24:50.720Z,-0.10
2022-12-08T05:28:01.669Z,-0.10
2022-12-08T05:31:15.180Z,-0.18
2022-12-08T05:34:17.630Z,-0.41
2022-12-08T05:37:20.072Z,-0.29
2022-12-08T05:40:22.408Z,-0.05
2022-12-08T05:43:25.043Z,-0.09
2022-12-08T05:46:27.412Z,-0.12
2022-12-08T05:49:29.871Z,-0.17
2022-12-08T05:52:33.074Z,-0.23
2022-12-08T05:55:35.398Z,-0.26
2022-12-08T05:58:37.749Z,-0.18
2022-12-08T06:01:40.162Z,-0.39
2022-12-08T06:04:42.785Z,-0.39
2022-12-08T06:07:45.211Z,-0.42
2022-12-08T06:10:47.605Z,-0.36
2022-12-08T06:13:50.548Z,-0.30
2022-12-08T06:16:53.011Z,-0.46
2022-12-08T06:19:55.384Z,-0.68
2022-12-08T06:22:57.720Z,-0.57
2022-12-08T06:26:04.191Z,-0.48
2022-12-08T06:29:06.556Z,-0.79
2022-12-08T06:32:09.013Z,-0.52
2022-12-08T06:35:11.512Z,-0.49
2022-12-08T06:38:13.807Z,-0.39
2022-12-08T06:41:16.402Z,-0.43
2022-12-08T06:44:18.784Z,-0.45
2022-12-08T06:47:26.375Z,-0.37
2022-12-08T06:50:29.075Z,-0.45
2022-12-08T06:53:31.386Z,-0.78
2022-12-08T06:56:33.652Z,-0.63
2022-12-08T06:59:35.973Z,-0.47
2022-12-08T07:02:38.515Z,-0.43
2022-12-08T07:05:40.983Z,-0.92
2022-12-08T07:08:43.427Z,-0.59
2022-12-08T07:11:45.738Z,-0.63
2022-12-08T07:14:48.014Z,-0.64
2022-12-08T07:17:54.895Z,-0.49
2022-12-08T07:21:11.394Z,-0.67
2022-12-08T07:24:14.029Z,-0.81
2022-12-08T07:27:16.456Z,-0.55
2022-12-08T07:30:18.906Z,-0.41
2022-12-08T07:33:21.129Z,-0.78
2022-12-08T07:36:23.744Z,-0.61
2022-12-08T07:39:26.121Z,-0.54
2022-12-08T07:42:28.492Z,-0.74
2022-12-08T07:45:31.808Z,-0.51
2022-12-08T07:48:34.385Z,-0.49
2022-12-08T07:51:36.764Z,-0.71
2022-12-08T07:54:39.135Z,-0.59
2022-12-08T07:57:41.548Z,-0.57
2022-12-08T08:00:43.855Z,-0.59
2022-12-08T08:03:46.242Z,-0.69
2022-12-08T08:06:48.636Z,-0.95
2022-12-08T08:09:50.907Z,-0.95
2022-12-08T08:12:53.273Z,-0.97
2022-12-08T08:15:55.621Z,-1.26
2022-12-08T08:18:58.044Z,-1.24
2022-12-08T08:22:00.492Z,-1.30
2022-12-08T08:25:02.767Z,-1.36
2022-12-08T08:28:05.125Z,-1.29
2022-12-08T08:31:07.558Z,-1.47
2022-12-08T08:34:09.855Z,-1.48
2022-12-08T08:37:12.460Z,-1.58
2022-12-08T08:40:15.061Z,-1.43
2022-12-08T08:43:34.465Z,-1.36
2022-12-08T08:46:40.036Z,-1.36
2022-12-08T08:49:42.464Z,-1.37
2022-12-08T08:52:45.307Z,-1.34
2022-12-08T08:55:47.973Z,-1.19
2022-12-08T08:58:52.645Z,-1.12
2022-12-08T09:01:55.342Z,-1.04
2022-12-08T09:04:58.378Z,-0.96
2022-12-08T09:08:00.886Z,-0.93
2022-12-08T09:11:04.357Z,-0.94
2022-12-08T09:14:07.294Z,-0.56
2022-12-08T09:17:09.872Z,-0.49
2022-12-08T09:20:12.335Z,-0.42
2022-12-08T09:23:15.451Z,-0.32
2022-12-08T09:26:17.815Z,-0.35
2022-12-08T09:29:20.308Z,-0.15
2022-12-08T09:32:22.641Z,-0.15
2022-12-08T09:35:24.950Z,0.07
2022-12-08T09:38:28.484Z,0.07
2022-12-08T09:41:40.245Z,-0.06
2022-12-08T09:44:57.485Z,-0.03
2022-12-08T09:48:25.071Z,0.06
2022-12-08T09:51:33.021Z,0.05
2022-12-08T09:54:36.380Z,0.20
2022-12-08T09:57:38.764Z,0.08
2022-12-08T10:00:41.030Z,0.01
2022-12-08T10:03:43.805Z,0.05
2022-12-08T10:06:49.662Z,0.18
2022-12-08T10:10:07.271Z,0.18
2022-12-08T10:13:23.063Z,0.31
2022-12-08T10:16:40.111Z,0.17
2022-12-08T10:19:43.216Z,0.23
2022-12-08T10:22:47.719Z,0.28
2022-12-08T10:25:56.730Z,0.20
2022-12-08T10:29:01.509Z,0.21
2022-12-08T10:32:13.306Z,0.12
2022-12-08T10:35:17.394Z,0.02
2022-12-08T10:38:33.931Z,0.19
2022-12-08T10:41:37.669Z,0.37
2022-12-08T10:44:56.413Z,0.61
2022-12-08T10:48:07.021Z,0.90
2022-12-08T10:51:23.316Z,1.08
2022-12-08T10:54:38.437Z,0.99
2022-12-08T10:57:40.739Z,0.95
2022-12-08T11:00:43.227Z,0.96
2022-12-08T11:03:47.243Z,0.91
2022-12-08T11:06:51.061Z,1.03
2022-12-08T11:09:58.250Z,0.89
2022-12-08T11:13:07.273Z,1.02
2022-12-08T11:16:13.473Z,0.88
2022-12-08T11:19:20.419Z,0.79
2022-12-08T11:22:36.346Z,0.93
2022-12-08T11:25:38.850Z,0.62
2022-12-08T11:28:41.155Z,0.70
2022-12-08T11:32:12.391Z,0.88
2022-12-08T11:35:27.982Z,1.12
2022-12-08T11:38:30.795Z,0.69
2022-12-08T11:41:38.532Z,0.65
2022-12-08T11:44:51.245Z,0.65
2022-12-08T11:48:16.270Z,0.46
2022-12-08T11:51:35.465Z,0.52
2022-12-08T11:54:45.813Z,0.48
2022-12-08T11:57:49.457Z,0.40
2022-12-08T12:00:51.855Z,0.34
2022-12-08T12:04:15.802Z,0.20
2022-12-08T12:07:42.226Z,0.17
2022-12-08T12:11:02.649Z,0.20
2022-12-08T12:14:19.793Z,0.09
2022-12-08T12:17:46.202Z,-0.04
2022-12-08T12:21:10.314Z,0.05
2022-12-08T12:24:35.726Z,-0.01
2022-12-08T12:27:40.432Z,-0.01
2022-12-08T12:30:59.975Z,-0.08
2022-12-08T12:34:11.647Z,-0.28
2022-12-08T12:37:17.393Z,-0.13
2022-12-08T12:40:22.250Z,-0.23
2022-12-08T12:43:34.310Z,-0.18
2022-12-08T12:46:53.951Z,-0.04
2022-12-08T12:50:06.828Z,-0.01
2022-12-08T12:53:18.337Z,-0.16
2022-12-08T12:56:51.642Z,-0.15
2022-12-08T12:59:55.853Z,-0.12
2022-12-08T13:03:15.110Z,-0.02
2022-12-08T13:06:26.908Z,-0.15
2022-12-08T13:09:30.531Z,-0.03
2022-12-08T13:12:32.819Z,0.03
2022-12-08T13:15:40.105Z,0.03
2022-12-08T13:18:53.251Z,0.07
2022-12-08T13:21:55.761Z,0.21
2022-12-08T13:25:53.614Z,0.16
2022-12-08T13:29:03.666Z,0.27
2022-12-08T13:32:08.831Z,0.40
2022-12-08T13:35:12.548Z,0.30
2022-12-08T13:38:18.445Z,0.33
2022-12-08T13:41:23.791Z,0.52
2022-12-08T13:45:18.682Z,0.40
2022-12-08T13:48:58.984Z,0.56
2022-12-08T13:56:30.709Z,0.54
2022-12-08T13:58:36.744Z,0.55
2022-12-08T14:01:46.824Z,0.56
2022-12-08T14:08:58.915Z,0.58
2022-12-08T14:12:06.742Z,0.59
2022-12-08T14:15:12.239Z,0.56
2022-12-08T14:18:29.247Z,0.65
2022-12-08T14:21:36.058Z,0.60
2022-12-08T14:24:39.513Z,0.70
2022-12-08T14:27:42.076Z,0.72
2022-12-08T14:30:44.684Z,0.72
2022-12-08T14:33:51.785Z,0.74
2022-12-08T14:36:57.184Z,0.84
2022-12-08T14:40:03.913Z,0.83
2022-12-08T14:43:09.137Z,0.69
2022-12-08T14:46:23.543Z,0.80
2022-12-08T14:49:34.196Z,0.79
2022-12-08T14:52:43.722Z,0.75
2022-12-08T14:55:48.037Z,0.74
2022-12-08T14:59:03.282Z,0.73
2022-12-08T15:02:24.282Z,0.55
2022-12-08T15:05:30.177Z,0.38
2022-12-08T15:08:33.145Z,0.44
2022-12-08T15:11:36.314Z,0.43
2022-12-08T15:14:42.109Z,0.54
2022-12-08T15:17:50.097Z,0.65
2022-12-08T15:20:54.570Z,0.63
2022-12-08T15:23:56.851Z,0.66
2022-12-08T15:26:59.311Z,0.54
2022-12-08T15:30:01.663Z,0.66
2022-12-08T15:33:04.099Z,0.69
2022-12-08T15:36:06.770Z,0.61
2022-12-08T15:39:33.271Z,0.72
2022-12-08T15:42:35.655Z,0.69
2022-12-08T15:45:40.713Z,0.70
2022-12-08T15:48:47.191Z,0.78
2022-12-08T15:51:50.321Z,0.81
2022-12-08T15:54:52.686Z,0.70
2022-12-08T16:01:17.418Z,0.72
2022-12-08T16:05:11.685Z,0.84
2022-12-08T16:07:44.037Z,0.93
2022-12-08T16:11:29.283Z,0.99
2022-12-08T16:14:47.423Z,1.10
2022-12-08T16:17:32.744Z,1.11
2022-12-08T16:21:06.118Z,1.03
2022-12-08T16:23:57.363Z,1.13
2022-12-08T16:30:22.397Z,1.08
2022-12-08T16:33:24.719Z,1.12
2022-12-08T16:36:26.984Z,1.02
2022-12-08T16:39:29.351Z,1.05
2022-12-08T16:42:50.388Z,1.07
2022-12-08T16:45:52.992Z,1.05
2022-12-08T16:48:58.171Z,0.99
2022-12-08T16:52:00.440Z,1.02
2022-12-08T16:55:03.406Z,1.02
2022-12-08T16:58:06.586Z,1.03
2022-12-08T17:01:16.844Z,1.07
2022-12-08T17:04:34.928Z,1.09
2022-12-08T17:07:37.424Z,1.08
2022-12-08T17:10:41.231Z,1.09
2022-12-08T17:13:43.601Z,1.20
2022-12-08T17:16:46.366Z,1.05
2022-12-08T17:19:48.878Z,1.02
2022-12-08T17:22:58.320Z,1.15
2022-12-08T17:26:01.545Z,1.01
2022-12-08T17:29:05.095Z,1.10
2022-12-08T17:32:07.586Z,1.06
2022-12-08T17:35:10.805Z,1.20
2022-12-08T17:38:13.065Z,1.13
2022-12-08T17:41:15.297Z,1.10
2022-12-08T17:44:19.742Z,1.13
2022-12-08T17:47:22.426Z,0.94
2022-12-08T17:50:24.716Z,1.06
2022-12-08T17:53:27.082Z,1.06
2022-12-08T17:56:29.388Z,0.92
2022-12-08T17:59:32.044Z,0.97
2022-12-08T18:02:35.719Z,0.91
2022-12-08T18:05:38.187Z,1.06
2022-12-08T18:08:41.053Z,1.02
2022-12-08T18:11:43.776Z,1.02
2022-12-08T18:14:46.583Z,0.97
2022-12-08T18:17:48.914Z,1.08
2022-12-08T18:20:51.336Z,1.18
2022-12-08T18:23:54.024Z,1.12
2022-12-08T18:26:57.849Z,1.10
2022-12-08T18:30:00.634Z,1.11
2022-12-08T18:33:06.218Z,1.30
2022-12-08T18:36:16.811Z,1.12
2022-12-08T18:39:29.312Z,1.09
2022-12-08T18:42:31.946Z,1.23
2022-12-08T18:45:36.867Z,1.28
2022-12-08T18:48:44.586Z,1.29
2022-12-08T18:51:47.497Z,1.18
2022-12-08T18:55:05.695Z,1.22
2022-12-08T18:58:10.992Z,1.12
2022-12-08T19:01:16.767Z,1.25
2022-12-08T19:04:38.455Z,1.16
2022-12-08T19:07:42.827Z,1.18
2022-12-08T19:10:45.168Z,1.38
2022-12-08T19:13:47.582Z,1.31
2022-12-08T19:16:50.717Z,1.24
2022-12-08T19:19:53.075Z,1.27
2022-12-08T19:22:55.579Z,1.59
2022-12-08T19:25:57.958Z,1.60
2022-12-08T19:29:00.352Z,1.38
2022-12-08T19:32:05.186Z,1.44
2022-12-08T19:35:08.021Z,1.44
2022-12-08T19:38:10.362Z,1.45
2022-12-08T19:41:31.405Z,1.45
2022-12-08T19:44:52.294Z,1.60
2022-12-08T19:47:54.638Z,1.37
2022-12-08T19:50:57.417Z,1.30
2022-12-08T19:53:59.693Z,1.25
2022-12-08T19:57:02.296Z,0.93
2022-12-08T20:00:05.250Z,0.89
2022-12-08T20:03:15.522Z,0.75
2022-12-08T20:06:18.879Z,0.51
2022-12-08T20:09:21.621Z,0.34
2022-12-08T20:12:23.942Z,0.45
2022-12-08T20:15:26.278Z,0.48
2022-12-08T20:18:28.904Z,0.23
2022-12-08T20:21:31.338Z,0.36
2022-12-08T20:24:33.699Z,0.60
2022-12-08T20:27:36.019Z,0.43
2022-12-08T20:30:39.601Z,0.43
2022-12-08T20:33:42.000Z,0.43
2022-12-08T20:36:44.907Z,0.20
2022-12-08T20:39:47.270Z,0.31
2022-12-08T20:42:49.633Z,0.43
2022-12-08T20:45:52.035Z,0.41
2022-12-08T20:48:57.904Z,0.37
2022-12-08T20:52:00.221Z,0.40
2022-12-08T20:55:03.013Z,0.50
2022-12-08T20:58:05.523Z,0.47
2022-12-08T21:01:12.393Z,0.42
2022-12-08T21:04:15.066Z,0.61
2022-12-08T21:07:17.814Z,0.62
2022-12-08T21:10:20.382Z,0.42
2022-12-08T21:13:22.782Z,0.39
2022-12-08T21:16:25.581Z,0.48
2022-12-08T21:19:28.019Z,0.42
2022-12-08T21:22:30.920Z,0.08
2022-12-08T21:25:33.336Z,0.19
2022-12-08T21:28:35.841Z,0.30
2022-12-08T21:31:38.690Z,0.32
2022-12-08T21:34:41.298Z,0.50
2022-12-08T21:37:43.841Z,0.57
2022-12-08T21:40:46.320Z,0.38
2022-12-08T21:43:48.758Z,0.31
2022-12-08T21:46:51.301Z,0.34
2022-12-08T21:49:54.811Z,0.37
2022-12-08T21:52:57.423Z,0.40
2022-12-08T21:55:59.825Z,0.41
2022-12-08T21:59:02.181Z,0.06
2022-12-08T22:02:04.524Z,0.11
2022-12-08T22:05:07.490Z,0.30
2022-12-08T22:08:10.157Z,0.57
2022-12-08T22:11:13.316Z,0.53
2022-12-08T22:14:15.900Z,0.42
2022-12-08T22:17:18.732Z,0.49
2022-12-08T22:20:21.614Z,0.44
2022-12-08T22:23:24.358Z,0.23
2022-12-08T22:26:27.044Z,0.10
2022-12-08T22:29:29.773Z,0.18
2022-12-08T22:32:32.744Z,0.34
2022-12-08T22:35:35.391Z,0.31
2022-12-08T22:38:37.896Z,0.19
2022-12-08T22:41:40.620Z,0.21
2022-12-08T22:44:43.193Z,0.33
2022-12-08T22:47:45.560Z,0.37
2022-12-08T22:50:48.170Z,0.28
2022-12-08T22:53:50.981Z,0.25
2022-12-08T22:56:53.504Z,0.25
2022-12-08T22:59:55.913Z,0.16
2022-12-08T23:02:58.298Z,0.23
2022-12-08T23:06:01.483Z,0.39
2022-12-08T23:09:04.292Z,0.57
2022-12-08T23:12:07.026Z,0.49
2022-12-08T23:15:10.062Z,0.21
2022-12-08T23:18:19.115Z,0.33
2022-12-08T23:21:22.333Z,0.23
2022-12-08T23:24:24.679Z,0.23
2022-12-08T23:27:26.941Z,0.41
2022-12-08T23:30:29.482Z,0.52
2022-12-08T23:33:32.172Z,0.32
2022-12-08T23:36:34.783Z,0.39
2022-12-08T23:39:37.401Z,0.27
2022-12-08T23:42:40.177Z,0.40
2022-12-08T23:45:42.918Z,0.37
2022-12-08T23:48:45.606Z,0.55
2022-12-08T23:51:48.222Z,0.44
2022-12-08T23:54:51.220Z,0.40
2022-12-08T23:57:53.576Z,0.50
